sensor_id;sensor_type;location;lat;lon;timestamp;P1;durP1;ratioP1;P2;durP2;ratioP2
58208;SDS011;44006;52.028;4.696;2023-03-23T00:02:19;11.02;;;4.80;;
58208;SDS011;44006;52.028;4.696;2023-03-23T00:04:44;9.63;;;4.88;;
58208;SDS011;44006;52.028;4.696;2023-03-23T00:07:09;13.55;;;5.25;;
58208;SDS011;44006;52.028;4.696;2023-03-23T00:09:37;9.10;;;4.35;;
58208;SDS011;44006;52.028;4.696;2023-03-23T00:12:06;8.13;;;4.47;;
58208;SDS011;44006;52.028;4.696;2023-03-23T00:14:32;8.90;;;4.95;;
58208;SDS011;44006;52.028;4.696;2023-03-23T00:17:06;12.82;;;4.28;;
58208;SDS011;44006;52.028;4.696;2023-03-23T00:19:32;8.25;;;3.88;;
58208;SDS011;44006;52.028;4.696;2023-03-23T00:21:57;7.65;;;4.00;;
58208;SDS011;44006;52.028;4.696;2023-03-23T00:24:25;9.68;;;3.92;;
58208;SDS011;44006;52.028;4.696;2023-03-23T00:26:50;9.90;;;4.18;;
58208;SDS011;44006;52.028;4.696;2023-03-23T00:29:19;7.90;;;3.60;;
58208;SDS011;44006;52.028;4.696;2023-03-23T00:31:51;10.52;;;4.32;;
58208;SDS011;44006;52.028;4.696;2023-03-23T00:34:19;8.88;;;3.55;;
58208;SDS011;44006;52.028;4.696;2023-03-23T00:36:48;8.63;;;3.60;;
58208;SDS011;44006;52.028;4.696;2023-03-23T00:39:13;6.68;;;3.45;;
58208;SDS011;44006;52.028;4.696;2023-03-23T00:41:41;7.00;;;4.05;;
58208;SDS011;44006;52.028;4.696;2023-03-23T00:44:06;10.20;;;3.80;;
58208;SDS011;44006;52.028;4.696;2023-03-23T00:46:34;6.05;;;3.45;;
58208;SDS011;44006;52.028;4.696;2023-03-23T00:48:59;9.38;;;3.50;;
58208;SDS011;44006;52.028;4.696;2023-03-23T00:51:24;7.70;;;3.20;;
58208;SDS011;44006;52.028;4.696;2023-03-23T00:53:50;7.55;;;3.47;;
58208;SDS011;44006;52.028;4.696;2023-03-23T00:56:16;4.70;;;3.05;;
58208;SDS011;44006;52.028;4.696;2023-03-23T00:58:41;8.40;;;3.33;;
58208;SDS011;44006;52.028;4.696;2023-03-23T01:01:07;5.82;;;3.25;;
58208;SDS011;44006;52.028;4.696;2023-03-23T01:03:33;8.07;;;3.70;;
58208;SDS011;44006;52.028;4.696;2023-03-23T01:06:07;6.47;;;3.20;;
58208;SDS011;44006;52.028;4.696;2023-03-23T01:08:33;6.00;;;3.20;;
58208;SDS011;44006;52.028;4.696;2023-03-23T01:11:03;8.98;;;3.38;;
58208;SDS011;44006;52.028;4.696;2023-03-23T01:13:30;7.05;;;3.40;;
58208;SDS011;44006;52.028;4.696;2023-03-23T01:15:55;5.60;;;2.90;;
58208;SDS011;44006;52.028;4.696;2023-03-23T01:18:21;10.57;;;3.30;;
58208;SDS011;44006;52.028;4.696;2023-03-23T01:20:46;5.47;;;2.90;;
58208;SDS011;44006;52.028;4.696;2023-03-23T01:23:12;8.18;;;3.05;;
58208;SDS011;44006;52.028;4.696;2023-03-23T01:25:37;6.03;;;3.00;;
58208;SDS011;44006;52.028;4.696;2023-03-23T01:28:02;5.50;;;3.10;;
58208;SDS011;44006;52.028;4.696;2023-03-23T01:30:29;7.55;;;2.88;;
58208;SDS011;44006;52.028;4.696;2023-03-23T01:32:55;5.25;;;3.15;;
58208;SDS011;44006;52.028;4.696;2023-03-23T01:35:21;6.03;;;2.72;;
58208;SDS011;44006;52.028;4.696;2023-03-23T01:37:46;6.28;;;3.17;;
58208;SDS011;44006;52.028;4.696;2023-03-23T01:40:13;8.13;;;3.35;;
58208;SDS011;44006;52.028;4.696;2023-03-23T01:42:38;6.00;;;2.97;;
58208;SDS011;44006;52.028;4.696;2023-03-23T01:47:44;8.27;;;3.10;;
58208;SDS011;44006;52.028;4.696;2023-03-23T01:50:10;6.28;;;2.92;;
58208;SDS011;44006;52.028;4.696;2023-03-23T01:52:35;8.88;;;2.95;;
58208;SDS011;44006;52.028;4.696;2023-03-23T01:55:01;5.20;;;2.65;;
58208;SDS011;44006;52.028;4.696;2023-03-23T01:57:28;5.32;;;2.80;;
58208;SDS011;44006;52.028;4.696;2023-03-23T01:59:55;5.22;;;2.58;;
58208;SDS011;44006;52.028;4.696;2023-03-23T02:02:23;6.47;;;2.28;;
58208;SDS011;44006;52.028;4.696;2023-03-23T02:07:42;5.50;;;2.65;;
58208;SDS011;44006;52.028;4.696;2023-03-23T02:10:17;7.43;;;3.22;;
58208;SDS011;44006;52.028;4.696;2023-03-23T02:12:43;6.72;;;2.67;;
58208;SDS011;44006;52.028;4.696;2023-03-23T02:15:09;7.35;;;3.20;;
58208;SDS011;44006;52.028;4.696;2023-03-23T02:17:38;7.65;;;3.15;;
58208;SDS011;44006;52.028;4.696;2023-03-23T02:20:08;8.65;;;2.90;;
58208;SDS011;44006;52.028;4.696;2023-03-23T02:25:18;4.38;;;2.47;;
58208;SDS011;44006;52.028;4.696;2023-03-23T02:35:22;8.68;;;2.95;;
58208;SDS011;44006;52.028;4.696;2023-03-23T02:37:49;6.38;;;2.90;;
58208;SDS011;44006;52.028;4.696;2023-03-23T02:40:20;7.35;;;2.70;;
58208;SDS011;44006;52.028;4.696;2023-03-23T02:42:48;8.68;;;3.53;;
58208;SDS011;44006;52.028;4.696;2023-03-23T02:45:13;8.32;;;2.83;;
58208;SDS011;44006;52.028;4.696;2023-03-23T02:47:40;5.13;;;2.72;;
58208;SDS011;44006;52.028;4.696;2023-03-23T02:50:07;8.25;;;2.90;;
58208;SDS011;44006;52.028;4.696;2023-03-23T02:52:33;9.00;;;2.78;;
58208;SDS011;44006;52.028;4.696;2023-03-23T02:55:00;5.97;;;3.00;;
58208;SDS011;44006;52.028;4.696;2023-03-23T02:57:27;6.47;;;2.90;;
58208;SDS011;44006;52.028;4.696;2023-03-23T02:59:53;6.65;;;2.67;;
58208;SDS011;44006;52.028;4.696;2023-03-23T03:02:26;9.55;;;2.80;;
58208;SDS011;44006;52.028;4.696;2023-03-23T03:18:00;7.43;;;2.70;;
58208;SDS011;44006;52.028;4.696;2023-03-23T03:20:28;6.75;;;3.30;;
58208;SDS011;44006;52.028;4.696;2023-03-23T03:22:54;5.10;;;2.50;;
58208;SDS011;44006;52.028;4.696;2023-03-23T03:25:21;7.00;;;3.28;;
58208;SDS011;44006;52.028;4.696;2023-03-23T03:27:48;10.38;;;2.88;;
58208;SDS011;44006;52.028;4.696;2023-03-23T03:30:18;7.95;;;2.75;;
58208;SDS011;44006;52.028;4.696;2023-03-23T03:32:46;9.30;;;2.90;;
58208;SDS011;44006;52.028;4.696;2023-03-23T03:35:13;8.85;;;2.70;;
58208;SDS011;44006;52.028;4.696;2023-03-23T03:37:39;7.05;;;3.20;;
58208;SDS011;44006;52.028;4.696;2023-03-23T03:40:15;6.85;;;2.90;;
58208;SDS011;44006;52.028;4.696;2023-03-23T03:42:42;9.68;;;2.83;;
58208;SDS011;44006;52.028;4.696;2023-03-23T03:45:08;9.23;;;3.00;;
58208;SDS011;44006;52.028;4.696;2023-03-23T03:47:33;8.27;;;2.83;;
58208;SDS011;44006;52.028;4.696;2023-03-23T03:49:59;11.10;;;3.45;;
58208;SDS011;44006;52.028;4.696;2023-03-23T03:52:27;8.27;;;3.50;;
58208;SDS011;44006;52.028;4.696;2023-03-23T03:54:52;9.25;;;3.17;;
58208;SDS011;44006;52.028;4.696;2023-03-23T03:57:18;6.80;;;3.15;;
58208;SDS011;44006;52.028;4.696;2023-03-23T03:59:44;8.77;;;2.88;;
58208;SDS011;44006;52.028;4.696;2023-03-23T04:02:10;7.68;;;2.92;;
58208;SDS011;44006;52.028;4.696;2023-03-23T04:04:38;7.80;;;2.60;;
58208;SDS011;44006;52.028;4.696;2023-03-23T04:07:03;7.40;;;2.70;;
58208;SDS011;44006;52.028;4.696;2023-03-23T04:09:31;11.63;;;2.58;;
58208;SDS011;44006;52.028;4.696;2023-03-23T04:11:56;9.95;;;2.83;;
58208;SDS011;44006;52.028;4.696;2023-03-23T04:14:21;8.27;;;2.65;;
58208;SDS011;44006;52.028;4.696;2023-03-23T04:16:47;8.20;;;2.47;;
58208;SDS011;44006;52.028;4.696;2023-03-23T04:19:12;10.65;;;2.92;;
58208;SDS011;44006;52.028;4.696;2023-03-23T04:21:37;12.18;;;2.65;;
58208;SDS011;44006;52.028;4.696;2023-03-23T04:24:03;8.20;;;2.58;;
58208;SDS011;44006;52.028;4.696;2023-03-23T04:26:32;8.88;;;2.70;;
58208;SDS011;44006;52.028;4.696;2023-03-23T04:28:58;9.25;;;2.60;;
58208;SDS011;44006;52.028;4.696;2023-03-23T04:31:23;7.97;;;2.47;;
58208;SDS011;44006;52.028;4.696;2023-03-23T04:33:54;6.28;;;2.10;;
58208;SDS011;44006;52.028;4.696;2023-03-23T04:36:19;10.23;;;2.33;;
58208;SDS011;44006;52.028;4.696;2023-03-23T04:38:47;9.48;;;2.67;;
58208;SDS011;44006;52.028;4.696;2023-03-23T04:41:12;9.55;;;2.20;;
58208;SDS011;44006;52.028;4.696;2023-03-23T04:43:38;6.30;;;2.20;;
58208;SDS011;44006;52.028;4.696;2023-03-23T04:46:06;12.55;;;2.58;;
58208;SDS011;44006;52.028;4.696;2023-03-23T04:48:33;10.48;;;2.20;;
58208;SDS011;44006;52.028;4.696;2023-03-23T04:51:02;11.57;;;2.60;;
58208;SDS011;44006;52.028;4.696;2023-03-23T04:53:30;11.35;;;2.60;;
58208;SDS011;44006;52.028;4.696;2023-03-23T04:55:55;14.80;;;2.78;;
58208;SDS011;44006;52.028;4.696;2023-03-23T04:58:21;9.88;;;2.80;;
58208;SDS011;44006;52.028;4.696;2023-03-23T05:00:48;14.13;;;3.33;;
58208;SDS011;44006;52.028;4.696;2023-03-23T05:03:17;10.38;;;3.70;;
58208;SDS011;44006;52.028;4.696;2023-03-23T05:05:43;12.65;;;3.92;;
58208;SDS011;44006;52.028;4.696;2023-03-23T05:08:12;13.02;;;5.18;;
58208;SDS011;44006;52.028;4.696;2023-03-23T05:10:37;16.42;;;4.35;;
58208;SDS011;44006;52.028;4.696;2023-03-23T05:13:02;10.98;;;3.28;;
58208;SDS011;44006;52.028;4.696;2023-03-23T05:15:28;11.90;;;3.90;;
58208;SDS011;44006;52.028;4.696;2023-03-23T05:17:53;16.63;;;3.43;;
58208;SDS011;44006;52.028;4.696;2023-03-23T05:20:18;11.98;;;3.42;;
58208;SDS011;44006;52.028;4.696;2023-03-23T05:22:45;12.50;;;3.33;;
58208;SDS011;44006;52.028;4.696;2023-03-23T05:25:12;17.08;;;3.38;;
58208;SDS011;44006;52.028;4.696;2023-03-23T05:27:38;17.88;;;3.72;;
58208;SDS011;44006;52.028;4.696;2023-03-23T05:30:04;13.02;;;3.42;;
58208;SDS011;44006;52.028;4.696;2023-03-23T05:32:29;14.95;;;3.70;;
58208;SDS011;44006;52.028;4.696;2023-03-23T05:34:56;15.70;;;4.47;;
58208;SDS011;44006;52.028;4.696;2023-03-23T05:37:22;12.60;;;3.53;;
58208;SDS011;44006;52.028;4.696;2023-03-23T05:39:47;15.45;;;3.38;;
58208;SDS011;44006;52.028;4.696;2023-03-23T05:42:12;17.98;;;4.03;;
58208;SDS011;44006;52.028;4.696;2023-03-23T05:44:38;13.80;;;3.33;;
58208;SDS011;44006;52.028;4.696;2023-03-23T05:47:05;11.98;;;3.40;;
58208;SDS011;44006;52.028;4.696;2023-03-23T05:49:30;15.63;;;4.07;;
58208;SDS011;44006;52.028;4.696;2023-03-23T05:51:56;13.65;;;3.50;;
58208;SDS011;44006;52.028;4.696;2023-03-23T05:54:24;12.52;;;3.72;;
58208;SDS011;44006;52.028;4.696;2023-03-23T05:56:51;13.32;;;4.03;;
58208;SDS011;44006;52.028;4.696;2023-03-23T05:59:17;11.73;;;3.58;;
58208;SDS011;44006;52.028;4.696;2023-03-23T06:01:44;13.40;;;4.35;;
58208;SDS011;44006;52.028;4.696;2023-03-23T06:04:09;15.95;;;4.10;;
58208;SDS011;44006;52.028;4.696;2023-03-23T06:06:36;14.88;;;4.55;;
58208;SDS011;44006;52.028;4.696;2023-03-23T06:09:07;15.52;;;4.50;;
58208;SDS011;44006;52.028;4.696;2023-03-23T06:11:32;16.13;;;4.75;;
58208;SDS011;44006;52.028;4.696;2023-03-23T06:13:59;20.25;;;5.50;;
58208;SDS011;44006;52.028;4.696;2023-03-23T06:16:24;19.13;;;5.15;;
58208;SDS011;44006;52.028;4.696;2023-03-23T06:18:50;19.92;;;6.40;;
58208;SDS011;44006;52.028;4.696;2023-03-23T06:21:15;14.68;;;5.68;;
58208;SDS011;44006;52.028;4.696;2023-03-23T06:23:43;19.27;;;5.35;;
58208;SDS011;44006;52.028;4.696;2023-03-23T06:26:09;20.42;;;5.57;;
58208;SDS011;44006;52.028;4.696;2023-03-23T06:28:36;14.45;;;4.85;;
58208;SDS011;44006;52.028;4.696;2023-03-23T06:31:04;22.30;;;5.13;;
58208;SDS011;44006;52.028;4.696;2023-03-23T06:33:31;18.98;;;5.47;;
58208;SDS011;44006;52.028;4.696;2023-03-23T06:35:57;19.30;;;6.28;;
58208;SDS011;44006;52.028;4.696;2023-03-23T06:38:22;24.10;;;6.07;;
58208;SDS011;44006;52.028;4.696;2023-03-23T06:40:48;20.65;;;5.70;;
58208;SDS011;44006;52.028;4.696;2023-03-23T06:43:14;17.83;;;5.53;;
58208;SDS011;44006;52.028;4.696;2023-03-23T06:45:39;17.13;;;5.30;;
58208;SDS011;44006;52.028;4.696;2023-03-23T06:48:05;18.58;;;5.25;;
58208;SDS011;44006;52.028;4.696;2023-03-23T06:50:31;16.85;;;5.05;;
58208;SDS011;44006;52.028;4.696;2023-03-23T06:52:57;18.65;;;5.28;;
58208;SDS011;44006;52.028;4.696;2023-03-23T06:55:24;21.25;;;4.75;;
58208;SDS011;44006;52.028;4.696;2023-03-23T06:57:50;16.65;;;4.50;;
58208;SDS011;44006;52.028;4.696;2023-03-23T07:00:15;14.07;;;4.53;;
58208;SDS011;44006;52.028;4.696;2023-03-23T07:02:41;17.17;;;4.60;;
58208;SDS011;44006;52.028;4.696;2023-03-23T07:05:07;13.93;;;4.45;;
58208;SDS011;44006;52.028;4.696;2023-03-23T07:07:34;13.73;;;3.83;;
58208;SDS011;44006;52.028;4.696;2023-03-23T07:09:59;19.00;;;4.20;;
58208;SDS011;44006;52.028;4.696;2023-03-23T07:12:24;15.40;;;3.80;;
58208;SDS011;44006;52.028;4.696;2023-03-23T07:14:49;13.77;;;4.05;;
58208;SDS011;44006;52.028;4.696;2023-03-23T07:17:15;23.17;;;4.47;;
58208;SDS011;44006;52.028;4.696;2023-03-23T07:19:40;12.82;;;4.18;;
58208;SDS011;44006;52.028;4.696;2023-03-23T07:22:06;19.15;;;4.45;;
58208;SDS011;44006;52.028;4.696;2023-03-23T07:24:32;12.07;;;2.92;;
58208;SDS011;44006;52.028;4.696;2023-03-23T07:26:57;15.15;;;3.08;;
58208;SDS011;44006;52.028;4.696;2023-03-23T07:29:23;14.80;;;3.65;;
58208;SDS011;44006;52.028;4.696;2023-03-23T07:31:48;16.10;;;3.28;;
58208;SDS011;44006;52.028;4.696;2023-03-23T07:34:14;12.88;;;3.08;;
58208;SDS011;44006;52.028;4.696;2023-03-23T07:36:40;15.93;;;3.53;;
58208;SDS011;44006;52.028;4.696;2023-03-23T07:39:05;16.05;;;3.60;;
58208;SDS011;44006;52.028;4.696;2023-03-23T07:41:31;16.02;;;3.58;;
58208;SDS011;44006;52.028;4.696;2023-03-23T07:43:56;12.75;;;3.10;;
58208;SDS011;44006;52.028;4.696;2023-03-23T07:46:22;15.27;;;3.05;;
58208;SDS011;44006;52.028;4.696;2023-03-23T07:48:47;14.35;;;2.70;;
58208;SDS011;44006;52.028;4.696;2023-03-23T07:51:14;12.15;;;3.10;;
58208;SDS011;44006;52.028;4.696;2023-03-23T07:53:57;19.35;;;3.50;;
58208;SDS011;44006;52.028;4.696;2023-03-23T07:56:25;14.30;;;3.58;;
58208;SDS011;44006;52.028;4.696;2023-03-23T07:58:59;14.23;;;2.72;;
58208;SDS011;44006;52.028;4.696;2023-03-23T08:04:23;16.10;;;3.22;;
58208;SDS011;44006;52.028;4.696;2023-03-23T08:06:50;14.75;;;3.35;;
58208;SDS011;44006;52.028;4.696;2023-03-23T08:09:15;14.43;;;3.70;;
58208;SDS011;44006;52.028;4.696;2023-03-23T08:11:41;14.75;;;3.50;;
58208;SDS011;44006;52.028;4.696;2023-03-23T08:14:07;18.63;;;3.63;;
58208;SDS011;44006;52.028;4.696;2023-03-23T08:16:33;15.40;;;3.40;;
58208;SDS011;44006;52.028;4.696;2023-03-23T08:18:59;12.50;;;3.65;;
58208;SDS011;44006;52.028;4.696;2023-03-23T08:21:24;15.93;;;3.83;;
58208;SDS011;44006;52.028;4.696;2023-03-23T08:23:51;12.45;;;3.70;;
58208;SDS011;44006;52.028;4.696;2023-03-23T08:26:17;17.98;;;3.78;;
58208;SDS011;44006;52.028;4.696;2023-03-23T08:28:42;17.63;;;4.20;;
58208;SDS011;44006;52.028;4.696;2023-03-23T08:31:12;10.48;;;3.33;;
58208;SDS011;44006;52.028;4.696;2023-03-23T08:33:38;15.20;;;3.45;;
58208;SDS011;44006;52.028;4.696;2023-03-23T08:36:03;17.13;;;4.03;;
58208;SDS011;44006;52.028;4.696;2023-03-23T08:38:30;13.55;;;3.63;;
58208;SDS011;44006;52.028;4.696;2023-03-23T08:41:02;14.70;;;3.42;;
58208;SDS011;44006;52.028;4.696;2023-03-23T08:43:28;12.77;;;4.20;;
58208;SDS011;44006;52.028;4.696;2023-03-23T08:45:54;14.50;;;4.18;;
58208;SDS011;44006;52.028;4.696;2023-03-23T08:48:20;15.18;;;4.07;;
58208;SDS011;44006;52.028;4.696;2023-03-23T08:50:45;23.55;;;5.43;;
58208;SDS011;44006;52.028;4.696;2023-03-23T08:53:10;19.25;;;5.45;;
58208;SDS011;44006;52.028;4.696;2023-03-23T08:55:36;18.05;;;4.93;;
58208;SDS011;44006;52.028;4.696;2023-03-23T08:58:02;23.35;;;5.57;;
58208;SDS011;44006;52.028;4.696;2023-03-23T09:00:29;17.35;;;4.47;;
58208;SDS011;44006;52.028;4.696;2023-03-23T09:02:55;21.55;;;5.38;;
58208;SDS011;44006;52.028;4.696;2023-03-23T09:05:22;15.63;;;4.22;;
58208;SDS011;44006;52.028;4.696;2023-03-23T09:07:50;16.42;;;4.60;;
58208;SDS011;44006;52.028;4.696;2023-03-23T09:10:16;15.05;;;3.92;;
58208;SDS011;44006;52.028;4.696;2023-03-23T09:12:43;16.50;;;3.67;;
58208;SDS011;44006;52.028;4.696;2023-03-23T09:15:09;21.50;;;4.07;;
58208;SDS011;44006;52.028;4.696;2023-03-23T09:17:35;17.60;;;3.83;;
58208;SDS011;44006;52.028;4.696;2023-03-23T09:20:03;20.80;;;3.90;;
58208;SDS011;44006;52.028;4.696;2023-03-23T09:22:32;20.58;;;4.13;;
58208;SDS011;44006;52.028;4.696;2023-03-23T09:24:58;16.33;;;3.60;;
58208;SDS011;44006;52.028;4.696;2023-03-23T09:27:23;18.20;;;3.63;;
58208;SDS011;44006;52.028;4.696;2023-03-23T09:29:48;18.90;;;3.92;;
58208;SDS011;44006;52.028;4.696;2023-03-23T09:32:14;20.67;;;3.90;;
58208;SDS011;44006;52.028;4.696;2023-03-23T09:34:40;15.02;;;3.67;;
58208;SDS011;44006;52.028;4.696;2023-03-23T09:37:06;11.82;;;3.17;;
58208;SDS011;44006;52.028;4.696;2023-03-23T09:39:31;16.55;;;4.20;;
58208;SDS011;44006;52.028;4.696;2023-03-23T09:42:05;19.88;;;4.22;;
58208;SDS011;44006;52.028;4.696;2023-03-23T09:52:12;19.40;;;3.30;;
58208;SDS011;44006;52.028;4.696;2023-03-23T09:54:41;18.80;;;3.55;;
58208;SDS011;44006;52.028;4.696;2023-03-23T10:02:17;17.00;;;3.33;;
58208;SDS011;44006;52.028;4.696;2023-03-23T10:04:47;17.65;;;3.20;;
58208;SDS011;44006;52.028;4.696;2023-03-23T10:07:20;19.35;;;3.80;;
58208;SDS011;44006;52.028;4.696;2023-03-23T10:09:47;17.67;;;4.05;;
58208;SDS011;44006;52.028;4.696;2023-03-23T10:14:57;14.32;;;3.85;;
58208;SDS011;44006;52.028;4.696;2023-03-23T10:17:37;18.42;;;3.35;;
58208;SDS011;44006;52.028;4.696;2023-03-23T10:22:41;16.05;;;3.20;;
58208;SDS011;44006;52.028;4.696;2023-03-23T10:27:38;20.40;;;3.57;;
58208;SDS011;44006;52.028;4.696;2023-03-23T10:30:19;20.75;;;4.55;;
58208;SDS011;44006;52.028;4.696;2023-03-23T10:35:17;20.83;;;3.60;;
58208;SDS011;44006;52.028;4.696;2023-03-23T10:37:46;18.17;;;3.20;;
58208;SDS011;44006;52.028;4.696;2023-03-23T10:40:23;20.58;;;3.10;;
58208;SDS011;44006;52.028;4.696;2023-03-23T10:42:50;18.35;;;3.55;;
58208;SDS011;44006;52.028;4.696;2023-03-23T10:45:20;21.33;;;3.35;;
58208;SDS011;44006;52.028;4.696;2023-03-23T10:48:04;26.67;;;4.65;;
58208;SDS011;44006;52.028;4.696;2023-03-23T10:50:34;16.50;;;3.28;;
58208;SDS011;44006;52.028;4.696;2023-03-23T10:53:00;18.60;;;3.80;;
58208;SDS011;44006;52.028;4.696;2023-03-23T10:55:37;19.17;;;4.20;;
58208;SDS011;44006;52.028;4.696;2023-03-23T10:58:11;15.18;;;4.00;;
58208;SDS011;44006;52.028;4.696;2023-03-23T11:00:44;19.20;;;3.55;;
58208;SDS011;44006;52.028;4.696;2023-03-23T11:05:42;18.20;;;3.53;;
58208;SDS011;44006;52.028;4.696;2023-03-23T11:08:15;19.17;;;3.78;;
58208;SDS011;44006;52.028;4.696;2023-03-23T11:10:47;14.98;;;3.42;;
58208;SDS011;44006;52.028;4.696;2023-03-23T11:13:13;20.35;;;3.92;;
58208;SDS011;44006;52.028;4.696;2023-03-23T11:15:39;20.80;;;3.58;;
58208;SDS011;44006;52.028;4.696;2023-03-23T11:18:24;16.95;;;3.38;;
58208;SDS011;44006;52.028;4.696;2023-03-23T11:20:51;16.63;;;3.38;;
58208;SDS011;44006;52.028;4.696;2023-03-23T11:23:24;18.63;;;3.47;;
58208;SDS011;44006;52.028;4.696;2023-03-23T11:25:52;16.08;;;3.53;;
58208;SDS011;44006;52.028;4.696;2023-03-23T11:28:18;16.73;;;3.35;;
58208;SDS011;44006;52.028;4.696;2023-03-23T11:30:44;21.33;;;3.47;;
58208;SDS011;44006;52.028;4.696;2023-03-23T11:33:09;17.38;;;3.47;;
58208;SDS011;44006;52.028;4.696;2023-03-23T11:35:35;16.38;;;2.72;;
58208;SDS011;44006;52.028;4.696;2023-03-23T11:38:01;18.55;;;3.05;;
58208;SDS011;44006;52.028;4.696;2023-03-23T11:40:29;17.75;;;3.55;;
58208;SDS011;44006;52.028;4.696;2023-03-23T11:42:57;13.95;;;3.70;;
58208;SDS011;44006;52.028;4.696;2023-03-23T11:45:36;18.83;;;3.22;;
58208;SDS011;44006;52.028;4.696;2023-03-23T11:50:53;15.68;;;3.47;;
58208;SDS011;44006;52.028;4.696;2023-03-23T11:55:52;10.60;;;2.80;;
58208;SDS011;44006;52.028;4.696;2023-03-23T11:58:20;15.73;;;3.88;;
58208;SDS011;44006;52.028;4.696;2023-03-23T12:00:51;14.45;;;2.42;;
58208;SDS011;44006;52.028;4.696;2023-03-23T12:05:55;11.75;;;2.63;;
58208;SDS011;44006;52.028;4.696;2023-03-23T12:08:30;19.38;;;2.85;;
58208;SDS011;44006;52.028;4.696;2023-03-23T12:13:36;16.27;;;2.60;;
58208;SDS011;44006;52.028;4.696;2023-03-23T12:16:18;10.23;;;2.50;;
58208;SDS011;44006;52.028;4.696;2023-03-23T12:18:47;10.30;;;2.60;;
58208;SDS011;44006;52.028;4.696;2023-03-23T12:24:21;12.15;;;3.28;;
58208;SDS011;44006;52.028;4.696;2023-03-23T12:26:58;9.05;;;2.20;;
58208;SDS011;44006;52.028;4.696;2023-03-23T12:29:37;12.15;;;2.63;;
58208;SDS011;44006;52.028;4.696;2023-03-23T12:34:44;12.43;;;2.20;;
58208;SDS011;44006;52.028;4.696;2023-03-23T12:50:17;14.27;;;2.90;;
58208;SDS011;44006;52.028;4.696;2023-03-23T12:55:19;13.70;;;2.50;;
58208;SDS011;44006;52.028;4.696;2023-03-23T13:00:25;12.30;;;2.47;;
58208;SDS011;44006;52.028;4.696;2023-03-23T13:02:57;14.40;;;2.60;;
58208;SDS011;44006;52.028;4.696;2023-03-23T13:08:12;12.48;;;2.90;;
58208;SDS011;44006;52.028;4.696;2023-03-23T13:10:45;14.07;;;2.50;;
58208;SDS011;44006;52.028;4.696;2023-03-23T13:13:22;11.32;;;2.45;;
58208;SDS011;44006;52.028;4.696;2023-03-23T13:16:02;11.48;;;2.95;;
58208;SDS011;44006;52.028;4.696;2023-03-23T13:21:02;12.50;;;2.65;;
58208;SDS011;44006;52.028;4.696;2023-03-23T13:23:34;12.82;;;2.67;;
58208;SDS011;44006;52.028;4.696;2023-03-23T13:28:29;10.02;;;3.03;;
58208;SDS011;44006;52.028;4.696;2023-03-23T13:47:41;21.90;;;3.47;;
58208;SDS011;44006;52.028;4.696;2023-03-23T13:57:50;12.00;;;2.67;;
58208;SDS011;44006;52.028;4.696;2023-03-23T14:11:01;14.65;;;3.20;;
58208;SDS011;44006;52.028;4.696;2023-03-23T14:13:33;12.15;;;3.10;;
58208;SDS011;44006;52.028;4.696;2023-03-23T14:18:26;12.90;;;2.70;;
58208;SDS011;44006;52.028;4.696;2023-03-23T14:20:52;10.75;;;2.53;;
58208;SDS011;44006;52.028;4.696;2023-03-23T14:23:19;14.70;;;2.38;;
58208;SDS011;44006;52.028;4.696;2023-03-23T14:25:44;12.57;;;2.53;;
58208;SDS011;44006;52.028;4.696;2023-03-23T14:28:17;13.45;;;2.65;;
58208;SDS011;44006;52.028;4.696;2023-03-23T14:30:43;14.43;;;3.10;;
58208;SDS011;44006;52.028;4.696;2023-03-23T14:33:10;19.98;;;3.15;;
58208;SDS011;44006;52.028;4.696;2023-03-23T14:35:37;12.05;;;2.20;;
58208;SDS011;44006;52.028;4.696;2023-03-23T14:38:05;16.20;;;2.88;;
58208;SDS011;44006;52.028;4.696;2023-03-23T14:40:36;10.80;;;2.70;;
58208;SDS011;44006;52.028;4.696;2023-03-23T14:43:01;13.15;;;2.75;;
58208;SDS011;44006;52.028;4.696;2023-03-23T14:45:26;14.60;;;3.03;;
58208;SDS011;44006;52.028;4.696;2023-03-23T14:47:57;12.50;;;2.53;;
58208;SDS011;44006;52.028;4.696;2023-03-23T14:52:51;11.80;;;3.22;;
58208;SDS011;44006;52.028;4.696;2023-03-23T14:55:18;19.38;;;3.42;;
58208;SDS011;44006;52.028;4.696;2023-03-23T14:57:44;15.85;;;2.78;;
58208;SDS011;44006;52.028;4.696;2023-03-23T15:00:14;18.23;;;3.00;;
58208;SDS011;44006;52.028;4.696;2023-03-23T15:02:42;14.90;;;3.15;;
58208;SDS011;44006;52.028;4.696;2023-03-23T15:05:13;13.85;;;3.30;;
58208;SDS011;44006;52.028;4.696;2023-03-23T15:07:40;16.85;;;2.95;;
58208;SDS011;44006;52.028;4.696;2023-03-23T15:10:07;12.07;;;2.88;;
58208;SDS011;44006;52.028;4.696;2023-03-23T15:12:33;14.30;;;3.22;;
58208;SDS011;44006;52.028;4.696;2023-03-23T15:15:02;11.57;;;2.35;;
58208;SDS011;44006;52.028;4.696;2023-03-23T15:17:29;14.82;;;2.88;;
58208;SDS011;44006;52.028;4.696;2023-03-23T15:19:55;15.68;;;3.30;;
58208;SDS011;44006;52.028;4.696;2023-03-23T15:22:44;13.45;;;2.70;;
58208;SDS011;44006;52.028;4.696;2023-03-23T15:27:51;18.52;;;2.90;;
58208;SDS011;44006;52.028;4.696;2023-03-23T15:32:45;12.70;;;2.60;;
58208;SDS011;44006;52.028;4.696;2023-03-23T15:35:22;14.88;;;3.25;;
58208;SDS011;44006;52.028;4.696;2023-03-23T15:37:51;17.25;;;3.75;;
58208;SDS011;44006;52.028;4.696;2023-03-23T15:40:18;12.98;;;3.22;;
58208;SDS011;44006;52.028;4.696;2023-03-23T15:42:44;12.35;;;2.50;;
58208;SDS011;44006;52.028;4.696;2023-03-23T15:47:43;16.00;;;3.00;;
58208;SDS011;44006;52.028;4.696;2023-03-23T15:50:31;11.60;;;3.03;;
58208;SDS011;44006;52.028;4.696;2023-03-23T15:52:57;12.38;;;2.75;;
58208;SDS011;44006;52.028;4.696;2023-03-23T15:55:35;10.82;;;2.83;;
58208;SDS011;44006;52.028;4.696;2023-03-23T15:58:01;15.38;;;2.88;;
58208;SDS011;44006;52.028;4.696;2023-03-23T16:00:30;13.88;;;3.10;;
58208;SDS011;44006;52.028;4.696;2023-03-23T16:02:59;18.63;;;3.15;;
58208;SDS011;44006;52.028;4.696;2023-03-23T16:05:25;14.35;;;3.08;;
58208;SDS011;44006;52.028;4.696;2023-03-23T16:07:51;16.42;;;3.22;;
58208;SDS011;44006;52.028;4.696;2023-03-23T16:10:17;14.73;;;2.85;;
58208;SDS011;44006;52.028;4.696;2023-03-23T16:12:44;16.15;;;3.00;;
58208;SDS011;44006;52.028;4.696;2023-03-23T16:15:09;18.55;;;3.40;;
58208;SDS011;44006;52.028;4.696;2023-03-23T16:17:36;13.88;;;3.17;;
58208;SDS011;44006;52.028;4.696;2023-03-23T16:20:13;17.60;;;3.20;;
58208;SDS011;44006;52.028;4.696;2023-03-23T16:22:39;16.13;;;3.08;;
58208;SDS011;44006;52.028;4.696;2023-03-23T16:25:05;17.05;;;3.78;;
58208;SDS011;44006;52.028;4.696;2023-03-23T16:27:31;18.98;;;3.40;;
58208;SDS011;44006;52.028;4.696;2023-03-23T16:29:56;16.20;;;3.42;;
58208;SDS011;44006;52.028;4.696;2023-03-23T16:32:24;16.92;;;3.17;;
58208;SDS011;44006;52.028;4.696;2023-03-23T16:34:49;17.92;;;3.85;;
58208;SDS011;44006;52.028;4.696;2023-03-23T16:37:15;18.00;;;3.40;;
58208;SDS011;44006;52.028;4.696;2023-03-23T16:39:41;18.92;;;3.33;;
58208;SDS011;44006;52.028;4.696;2023-03-23T16:42:08;15.98;;;3.35;;
58208;SDS011;44006;52.028;4.696;2023-03-23T16:44:34;18.60;;;3.25;;
58208;SDS011;44006;52.028;4.696;2023-03-23T16:47:00;16.65;;;3.55;;
58208;SDS011;44006;52.028;4.696;2023-03-23T16:49:25;18.40;;;3.33;;
58208;SDS011;44006;52.028;4.696;2023-03-23T16:51:50;16.90;;;3.45;;
58208;SDS011;44006;52.028;4.696;2023-03-23T16:54:15;13.77;;;3.25;;
58208;SDS011;44006;52.028;4.696;2023-03-23T16:56:42;16.48;;;3.33;;
58208;SDS011;44006;52.028;4.696;2023-03-23T16:59:11;18.08;;;3.40;;
58208;SDS011;44006;52.028;4.696;2023-03-23T17:01:36;19.88;;;3.70;;
58208;SDS011;44006;52.028;4.696;2023-03-23T17:04:01;21.80;;;3.55;;
58208;SDS011;44006;52.028;4.696;2023-03-23T17:06:27;17.52;;;3.40;;
58208;SDS011;44006;52.028;4.696;2023-03-23T17:08:53;19.52;;;3.70;;